Time;durP1;ratioP1;P1;durP2;ratioP2;P2;SDS_P1;SDS_P2;PMS_P1;PMS_P2;Temp;Humidity;BMP_temperature;BMP_pressure;BME280_temperature;BME280_humidity;BME280_pressure;Samples;Min_cycle;Max_cycle;Signal;HPM_P1;HPM_P2
2020/12/27 00:02:11;;;;;;;9.02;4.72;;;-3275.50;73.20;;;-3.77;74.10;96040.13;5019370;28;20041;-69
2020/12/27 00:04:38;;;;;;;9.40;4.95;;;-3275.50;73.30;;;-3.82;72.80;96030.16;5032657;28;20028;-69
2020/12/27 00:07:08;;;;;;;11.07;5.32;;;-3275.50;73.30;;;-3.85;73.45;96027.75;5070120;28;20028;-69
2020/12/27 00:09:37;;;;;;;10.05;5.10;;;-3275.40;73.40;;;-3.88;73.66;96022.00;5049900;28;20036;-69
2020/12/27 00:12:04;;;;;;;10.43;5.07;;;-3275.40;73.70;;;-3.90;73.08;96018.72;5021480;28;20057;-69
2020/12/27 00:14:29;;;;;;;12.80;5.00;;;-3275.30;73.90;;;-3.94;72.73;96017.28;5019777;28;20119;-69
2020/12/27 00:16:55;;;;;;;9.38;4.97;;;-3275.30;74.20;;;-3.96;73.08;96019.97;4999332;28;20115;-69
2020/12/27 00:19:20;;;;;;;10.10;5.22;;;-3275.30;74.20;;;-3.98;73.21;96021.81;5001901;28;20033;-69
2020/12/27 00:21:46;;;;;;;9.23;4.75;;;-3275.30;74.40;;;-4.01;73.16;96007.44;5049168;28;20044;-69
2020/12/27 00:24:12;;;;;;;11.32;4.80;;;-3275.30;74.50;;;-4.05;73.08;96000.84;5052663;28;20041;-69
2020/12/27 00:26:37;;;;;;;9.82;4.30;;;-3275.20;74.40;;;-4.08;73.47;95993.31;5044813;28;20479;-69
2020/12/27 00:29:04;;;;;;;10.95;4.90;;;-3275.10;74.70;;;-4.11;73.46;95990.97;5031916;28;20045;-69
2020/12/27 00:31:30;;;;;;;8.05;4.13;;;-3275.10;74.80;;;-4.11;73.11;95990.16;5033910;28;20032;-69
2020/12/27 00:33:55;;;;;;;8.98;4.68;;;-3275.10;74.50;;;-4.11;73.15;95990.16;5015651;28;20044;-69
2020/12/27 00:36:21;;;;;;;8.35;4.32;;;-3275.10;74.30;;;-4.13;73.34;95981.72;5018939;28;20029;-69
2020/12/27 00:38:47;;;;;;;7.70;4.25;;;-3275.10;74.00;;;-4.11;73.36;95987.56;5031720;28;20033;-69
2020/12/27 00:41:20;;;;;;;9.10;4.25;;;-3275.10;74.20;;;-4.12;74.60;95973.09;5036508;28;20017;-69
2020/12/27 00:43:48;;;;;;;7.25;3.95;;;-3275.10;74.10;;;-4.14;73.51;95962.09;5015303;28;20094;-69
2020/12/27 00:46:14;;;;;;;7.30;4.03;;;-3275.10;73.70;;;-4.17;73.40;95963.13;5028148;28;20084;-69
2020/12/27 00:48:39;;;;;;;8.23;4.22;;;-3275.10;73.60;;;-4.19;73.36;95964.16;5018681;28;20134;-69
2020/12/27 00:51:05;;;;;;;7.53;3.50;;;-3275.10;73.60;;;-4.20;73.15;95965.09;5029958;28;20435;-70
2020/12/27 00:53:30;;;;;;;7.93;4.07;;;-3275.00;73.50;;;-4.20;73.60;95965.09;5048645;28;20028;-69
2020/12/27 00:55:56;;;;;;;7.18;4.22;;;-3275.00;73.90;;;-4.21;73.39;95966.00;5015696;28;20067;-69
2020/12/27 00:58:22;;;;;;;8.30;3.92;;;-3275.00;73.90;;;-4.25;73.25;95956.88;5047715;28;20106;-69
2020/12/27 01:00:47;;;;;;;9.30;3.88;;;-3275.00;73.50;;;-4.28;73.24;95969.91;5029232;28;20369;-69
2020/12/27 01:03:13;;;;;;;8.93;4.32;;;-3275.00;73.50;;;-4.31;73.33;95966.59;5012926;28;20025;-68
2020/12/27 01:05:38;;;;;;;9.60;4.07;;;-3275.00;73.40;;;-4.33;72.81;95965.88;5043012;28;20040;-69
2020/12/27 01:08:04;;;;;;;7.45;3.75;;;-3274.90;73.50;;;-4.35;73.17;95972.06;5050551;28;20032;-69
2020/12/27 01:10:29;;;;;;;9.30;4.38;;;-3274.80;74.00;;;-4.38;73.33;95967.94;5033448;28;20036;-69
2020/12/27 01:12:55;;;;;;;8.23;4.30;;;-3274.80;74.20;;;-4.41;73.27;95965.59;5068553;28;20077;-69
2020/12/27 01:15:20;;;;;;;7.05;3.83;;;-3274.80;74.30;;;-4.43;73.42;95964.03;5032697;28;20033;-69
2020/12/27 01:17:46;;;;;;;10.07;3.78;;;-3274.80;74.30;;;-4.47;73.26;95955.72;5050163;28;20147;-69
2020/12/27 01:20:11;;;;;;;12.32;4.80;;;-3274.80;74.20;;;-4.48;73.28;95956.66;5063216;28;20126;-69
2020/12/27 01:22:37;;;;;;;8.95;4.43;;;-3274.70;74.00;;;-4.49;73.36;95960.13;5050146;28;20033;-69
2020/12/27 01:25:02;;;;;;;9.98;4.47;;;-3274.70;74.10;;;-4.51;73.34;95944.03;5061354;28;20032;-69
2020/12/27 01:27:28;;;;;;;14.27;4.80;;;-3274.70;74.20;;;-4.54;73.50;95939.06;5033584;28;20020;-69
2020/12/27 01:29:53;;;;;;;12.43;5.65;;;-3274.70;74.20;;;-4.56;73.56;95929.81;5046531;28;20062;-69
2020/12/27 01:32:19;;;;;;;11.65;5.40;;;-3274.60;74.40;;;-4.59;73.67;95922.34;5038316;28;20028;-69
2020/12/27 01:34:44;;;;;;;11.82;5.97;;;-3274.60;74.50;;;-4.63;73.82;95917.41;5013796;28;20037;-69
2020/12/27 01:37:10;;;;;;;11.23;4.95;;;-3274.60;74.50;;;-4.67;73.79;95910.00;5000327;28;20387;-69
2020/12/27 01:39:35;;;;;;;10.63;4.80;;;-3274.60;74.30;;;-4.72;73.94;95901.81;5032535;28;20057;-70
2020/12/27 01:42:01;;;;;;;9.75;5.10;;;-3274.60;74.50;;;-4.72;74.03;95896.66;5030076;28;20044;-70
2020/12/27 01:44:26;;;;;;;12.02;4.85;;;-3274.50;74.50;;;-4.72;74.03;95891.53;4997405;28;20112;-69
2020/12/27 01:46:52;;;;;;;9.70;4.47;;;-3274.60;74.60;;;-4.72;74.11;95881.28;5026689;28;20118;-69
2020/12/27 01:49:17;;;;;;;8.75;4.15;;;-3274.50;74.70;;;-4.72;74.06;95876.16;5042138;28;20060;-69
2020/12/27 01:51:43;;;;;;;10.02;4.57;;;-3274.60;74.90;;;-4.73;73.92;95882.19;5049926;28;20025;-69
2020/12/27 01:54:08;;;;;;;8.63;4.65;;;-3274.60;74.60;;;-4.75;73.84;95866.06;5042860;28;20021;-69
2020/12/27 01:56:40;;;;;;;9.95;4.28;;;-3274.60;74.50;;;-4.77;74.91;95852.50;5015918;28;20033;-69
2020/12/27 01:59:09;;;;;;;9.10;4.07;;;-3274.50;74.50;;;-4.77;74.51;95858.47;5016636;28;20080;-69
2020/12/27 02:01:37;;;;;;;9.35;4.20;;;-3274.50;74.40;;;-4.77;74.15;95842.25;5015207;28;20062;-70
2020/12/27 02:04:02;;;;;;;9.07;3.85;;;-3274.50;74.50;;;-4.77;74.01;95837.13;5013574;28;20491;-69
2020/12/27 02:06:28;;;;;;;8.05;3.58;;;-3274.50;74.60;;;-4.78;73.94;95835.47;5032150;28;20059;-70
2020/12/27 02:08:54;;;;;;;11.05;4.10;;;-3274.50;74.40;;;-4.79;73.90;95828.72;5047829;28;20041;-69
2020/12/27 02:11:20;;;;;;;8.48;3.72;;;-3274.50;74.50;;;-4.79;74.15;95833.84;5045480;28;20175;-69
2020/12/27 02:13:50;;;;;;;8.00;3.58;;;-3274.50;74.60;;;-4.79;75.02;95823.56;5035393;28;20399;-69
2020/12/27 02:16:23;;;;;;;6.70;3.90;;;-3274.50;74.50;;;-4.81;75.54;95804.91;5046794;28;20060;-69
2020/12/27 02:18:56;;;;;;;5.82;3.40;;;-3274.50;74.40;;;-4.83;75.26;95805.00;5007479;28;20041;-70
2020/12/27 02:21:23;;;;;;;8.18;3.53;;;-3274.50;74.40;;;-4.81;74.32;95799.78;5050111;28;20028;-69
2020/12/27 02:23:48;;;;;;;7.68;3.95;;;-3274.50;74.50;;;-4.83;74.31;95791.38;5032447;28;20020;-69
2020/12/27 02:26:14;;;;;;;6.65;3.60;;;-3274.50;74.60;;;-4.85;74.49;95786.34;5021229;28;20376;-69
2020/12/27 02:28:40;;;;;;;12.45;3.90;;;-3274.50;74.90;;;-4.85;74.33;95781.22;5015864;28;20214;-69
2020/12/27 02:31:05;;;;;;;8.88;4.10;;;-3274.50;75.10;;;-4.86;74.51;95779.56;5028665;28;20024;-69
2020/12/27 02:33:31;;;;;;;9.30;4.13;;;-3274.40;75.40;;;-4.88;74.41;95771.16;5026542;28;20021;-69
2020/12/27 02:35:56;;;;;;;8.38;3.67;;;-3274.40;75.40;;;-4.87;74.71;95775.34;4996351;28;20053;-69
2020/12/27 02:38:22;;;;;;;8.32;3.90;;;-3274.40;75.30;;;-4.89;74.66;95777.22;5015518;28;20131;-70
2020/12/27 02:40:48;;;;;;;7.13;3.58;;;-3274.40;75.00;;;-4.94;74.37;95754.44;5018795;28;20082;-69
2020/12/27 02:43:18;;;;;;;6.85;3.65;;;-3274.30;74.80;;;-4.97;75.50;95746.13;5047840;28;20138;-69
2020/12/27 02:45:44;;;;;;;8.43;3.88;;;-3274.30;75.00;;;-5.00;74.57;95739.44;5029023;28;20029;-69
2020/12/27 02:48:10;;;;;;;11.77;3.92;;;-3274.30;74.80;;;-5.02;74.88;95738.72;5005374;28;20047;-69
2020/12/27 02:50:35;;;;;;;7.88;3.90;;;-3274.30;75.00;;;-5.01;74.68;95724.16;5028534;28;20433;-69
2020/12/27 02:53:01;;;;;;;6.65;3.70;;;-3274.30;75.00;;;-5.03;74.57;95714.00;5028204;28;20474;-69
2020/12/27 02:55:27;;;;;;;6.13;3.55;;;-3274.30;74.90;;;-5.03;74.62;95714.00;5043021;28;20029;-69
2020/12/27 02:57:52;;;;;;;8.48;3.67;;;-3274.30;75.00;;;-5.03;74.45;95698.63;5026729;28;20792;-69
2020/12/27 03:00:18;;;;;;;6.00;3.55;;;-3274.30;75.10;;;-5.04;74.60;95702.13;5012114;28;20476;-69
2020/12/27 03:02:43;;;;;;;8.63;3.88;;;-3274.30;74.80;;;-5.04;74.65;95691.03;5015518;28;20120;-70
2020/12/27 03:05:09;;;;;;;7.60;3.30;;;-3274.30;74.80;;;-5.05;74.67;95699.66;5047238;28;20143;-69
2020/12/27 03:07:35;;;;;;;6.80;3.50;;;-3274.20;74.70;;;-5.05;74.48;95694.53;5011658;28;20059;-69
2020/12/27 03:10:00;;;;;;;5.95;3.15;;;-3274.20;74.70;;;-5.07;74.55;95689.50;5028555;28;20033;-69
2020/12/27 03:12:26;;;;;;;8.38;3.70;;;-3274.20;74.60;;;-5.08;74.55;95679.34;5014607;28;20134;-69
2020/12/27 03:14:51;;;;;;;6.78;3.75;;;-3274.20;74.70;;;-5.09;74.50;95667.47;5028328;28;20028;-69
2020/12/27 03:17:17;;;;;;;8.35;4.05;;;-3274.20;74.90;;;-5.10;74.59;95658.94;5015030;28;20071;-70
2020/12/27 03:19:42;;;;;;;8.38;3.90;;;-3274.20;74.90;;;-5.10;74.61;95655.56;5029688;28;20032;-69
2020/12/27 03:22:08;;;;;;;9.88;4.18;;;-3274.20;74.80;;;-5.11;74.86;95646.22;5014774;28;20036;-70
2020/12/27 03:24:34;;;;;;;7.28;4.03;;;-3274.20;74.60;;;-5.12;74.70;95653.09;5045393;28;20120;-69
2020/12/27 03:26:59;;;;;;;7.18;3.60;;;-3274.20;74.50;;;-5.12;74.49;95642.03;5047647;28;20028;-69
2020/12/27 03:29:25;;;;;;;6.38;3.25;;;-3274.20;74.20;;;-5.14;74.73;95629.31;5029440;28;20052;-69
2020/12/27 03:31:50;;;;;;;7.18;2.95;;;-3274.20;74.20;;;-5.16;74.49;95633.72;5026172;28;20063;-70
2020/12/27 03:34:16;;;;;;;6.07;2.97;;;-3274.10;74.30;;;-5.14;74.53;95634.44;5047122;28;20222;-69
2020/12/27 03:36:42;;;;;;;7.93;3.50;;;-3274.10;74.20;;;-5.14;74.31;95629.31;5036595;28;20033;-70
2020/12/27 03:39:08;;;;;;;5.13;2.75;;;-3274.10;74.20;;;-5.16;74.48;95628.59;5023252;28;20025;-69
2020/12/27 03:41:33;;;;;;;6.70;3.08;;;-3274.10;74.20;;;-5.19;74.64;95623.69;5048012;28;20052;-70
2020/12/27 03:43:59;;;;;;;63.35;30.33;;;-3274.10;74.20;;;-5.21;74.76;95612.69;5037740;28;20062;-69
2020/12/27 03:46:24;;;;;;;68.50;31.63;;;-3274.10;74.50;;;-5.21;74.83;95596.50;5045971;28;20154;-69
2020/12/27 03:48:50;;;;;;;61.08;29.30;;;-3274.10;74.60;;;-5.21;74.88;95592.19;5027471;28;20056;-70
2020/12/27 03:51:15;;;;;;;19.45;10.25;;;-3274.10;74.50;;;-5.22;74.67;95590.56;5043278;28;20541;-70
2020/12/27 03:53:41;;;;;;;9.70;5.13;;;-3274.10;74.30;;;-5.21;75.10;95589.63;4994443;28;20376;-69
2020/12/27 03:56:07;;;;;;;7.47;3.60;;;-3274.10;74.10;;;-5.21;74.98;95584.50;5015590;28;20116;-69
2020/12/27 03:58:33;;;;;;;5.45;3.15;;;-3274.10;74.10;;;-5.22;74.60;95580.28;5027021;28;20025;-69
2020/12/27 04:00:58;;;;;;;7.68;2.78;;;-3274.10;74.00;;;-5.25;74.87;95570.25;5019149;28;20025;-70
2020/12/27 04:03:24;;;;;;;5.13;2.88;;;-3274.10;73.90;;;-5.25;74.76;95560.00;5045267;28;20399;-69
2020/12/27 04:05:49;;;;;;;6.68;3.20;;;-3274.10;74.30;;;-5.26;74.88;95563.50;5035171;28;20041;-69
2020/12/27 04:08:15;;;;;;;5.68;2.65;;;-3274.00;74.40;;;-5.28;75.10;95549.97;5064559;28;20795;-69
2020/12/27 04:10:40;;;;;;;6.03;3.13;;;-3274.00;74.70;;;-5.26;74.68;95537.88;4994828;28;20119;-69
2020/12/27 04:13:06;;;;;;;8.27;2.47;;;-3274.10;74.80;;;-5.25;74.94;95530.06;5045038;28;20044;-70
2020/12/27 04:15:32;;;;;;;5.68;2.60;;;-3274.10;74.70;;;-5.25;74.99;95524.13;5014887;28;20273;-70
2020/12/27 04:17:57;;;;;;;6.85;2.85;;;-3274.10;74.60;;;-5.26;75.14;95527.59;5016591;28;20072;-70
2020/12/27 04:20:23;;;;;;;6.07;2.70;;;-3274.00;74.70;;;-5.27;75.24;95520.84;5014266;28;20024;-70
2020/12/27 04:22:51;;;;;;;5.85;2.67;;;-3274.00;74.80;;;-5.31;75.68;95517.69;5014444;28;20098;-69
2020/12/27 04:25:18;;;;;;;8.75;3.38;;;-3273.90;75.10;;;-5.33;75.12;95505.91;5030594;28;20056;-69
2020/12/27 04:27:43;;;;;;;7.65;3.90;;;-3273.80;75.60;;;-5.36;75.75;95506.13;5031118;28;20367;-69
2020/12/27 04:30:09;;;;;;;7.68;3.50;;;-3273.80;76.30;;;-5.40;75.78;95502.13;5043919;28;20144;-69
2020/12/27 04:32:34;;;;;;;7.07;3.90;;;-3273.70;76.70;;;-5.46;76.13;95505.09;5030490;28;20067;-69
2020/12/27 04:35:02;;;;;;;9.27;4.00;;;-3273.70;77.00;;;-5.48;76.33;95501.84;5026360;28;20467;-69
2020/12/27 04:37:28;;;;;;;9.20;4.03;;;-3273.60;77.40;;;-5.51;76.15;95496.94;5013985;28;20506;-69
2020/12/27 04:39:54;;;;;;;6.57;3.65;;;-3273.60;77.50;;;-5.56;76.17;95479.31;5046644;28;20044;-69
2020/12/27 04:42:21;;;;;;;7.00;3.92;;;-3273.50;77.90;;;-5.57;76.31;95477.69;5033724;28;20040;-70
2020/12/27 04:44:46;;;;;;;8.48;3.17;;;-3273.50;77.70;;;-5.58;76.32;95471.72;5030799;28;20032;-69
2020/12/27 04:47:13;;;;;;;7.57;3.65;;;-3273.50;77.50;;;-5.62;76.27;95462.63;5028534;28;20045;-68
2020/12/27 04:49:38;;;;;;;7.05;3.63;;;-3273.50;77.50;;;-5.63;76.19;95453.31;5021054;28;20444;-69
2020/12/27 04:52:04;;;;;;;7.97;3.25;;;-3273.60;77.10;;;-5.66;75.96;95453.53;5013650;28;20039;-69
2020/12/27 04:54:29;;;;;;;7.18;3.58;;;-3273.50;77.10;;;-5.67;76.02;95451.88;5018672;28;20554;-69
2020/12/27 04:56:55;;;;;;;7.35;3.50;;;-3273.50;76.80;;;-5.69;76.21;95447.78;5050338;28;20368;-69
2020/12/27 04:59:21;;;;;;;7.15;3.10;;;-3273.50;77.00;;;-5.69;76.27;95448.59;5012991;28;20037;-69
2020/12/27 05:01:50;;;;;;;8.95;3.72;;;-3273.50;76.90;;;-5.71;76.45;95450.44;5007599;28;20036;-68
2020/12/27 05:04:21;;;;;;;6.03;3.08;;;-3273.50;76.80;;;-5.71;75.86;95450.44;5045704;28;20460;-69
2020/12/27 05:06:46;;;;;;;;;;;-3273.50;76.50;;;-5.68;78.41;95450.22;5049186;28;20688;-69
2020/12/27 05:09:12;;;;;;;6.40;3.20;;;-3273.60;76.40;;;-5.70;75.67;95446.13;5030111;28;19922;-69
2020/12/27 05:11:38;;;;;;;7.63;3.30;;;-3273.60;76.40;;;-5.70;75.88;95441.84;5061944;28;20055;-69
2020/12/27 05:14:04;;;;;;;5.47;2.92;;;-3273.60;76.20;;;-5.70;76.02;95441.84;5033456;28;20124;-69
2020/12/27 05:16:30;;;;;;;6.03;3.42;;;-3273.60;76.20;;;-5.69;76.01;95438.34;5033121;28;20032;-69
2020/12/27 05:18:58;;;;;;;5.05;2.88;;;-3273.70;76.10;;;-5.70;75.82;95431.59;5050224;28;20020;-69
2020/12/27 05:21:23;;;;;;;7.97;2.78;;;-3273.60;76.10;;;-5.68;76.01;95429.72;5013069;28;20028;-68
2020/12/27 05:23:50;;;;;;;6.70;2.85;;;-3273.70;76.00;;;-5.65;75.92;95418.47;5043901;28;20031;-69
2020/12/27 05:26:16;;;;;;;5.70;3.05;;;-3273.70;75.90;;;-5.66;75.71;95430.47;5064105;28;20033;-69
2020/12/27 05:28:43;;;;;;;8.07;3.28;;;-3273.70;75.80;;;-5.67;76.12;95441.63;5030093;28;20380;-68
2020/12/27 05:31:14;;;;;;;5.55;3.13;;;-3273.70;75.80;;;-5.66;76.93;95445.84;5026258;28;20033;-69
2020/12/27 05:33:41;;;;;;;5.82;3.08;;;-3273.70;75.80;;;-5.66;76.14;95438.16;4997292;28;20029;-70
2020/12/27 05:36:08;;;;;;;6.43;2.60;;;-3273.70;75.80;;;-5.66;75.89;95440.72;5024020;28;20039;-69
2020/12/27 05:38:33;;;;;;;4.50;2.78;;;-3273.70;75.40;;;-5.68;76.05;95434.03;5032752;28;20027;-69
2020/12/27 05:41:00;;;;;;;5.82;2.53;;;-3273.70;75.20;;;-5.72;75.98;95415.50;5013126;28;20408;-69
2020/12/27 05:43:26;;;;;;;5.05;2.53;;;-3273.60;75.20;;;-5.75;75.91;95418.28;5020869;28;20118;-69
2020/12/27 05:45:54;;;;;;;4.95;2.40;;;-3273.50;75.40;;;-5.76;76.09;95403.84;5047304;28;20657;-69
2020/12/27 05:48:20;;;;;;;5.43;2.38;;;-3273.50;75.40;;;-5.77;75.83;95403.97;5030623;28;20036;-69
2020/12/27 05:50:45;;;;;;;6.28;2.85;;;-3273.50;75.70;;;-5.80;75.95;95399.88;5016118;28;20098;-69
2020/12/27 05:53:25;;;;;;;5.00;2.33;;;-3273.50;75.90;;;-5.81;77.63;95382.88;5031638;28;20498;-70
2020/12/27 05:55:52;;;;;;;4.78;2.30;;;-3273.40;76.20;;;-5.80;76.08;95386.25;5029811;28;20043;-69
2020/12/27 05:58:22;;;;;;;5.55;2.33;;;-3273.30;76.00;;;-5.82;76.69;95381.25;5062730;28;20100;-69
2020/12/27 06:00:54;;;;;;;4.28;2.13;;;-3273.30;76.10;;;-5.82;76.79;95371.00;5048654;28;20037;-69
2020/12/27 06:03:29;;;;;;;4.70;2.33;;;-3273.30;75.90;;;-5.87;76.83;95367.94;5029569;28;20037;-69
2020/12/27 06:05:55;;;;;;;5.13;2.40;;;-3273.30;76.10;;;-5.86;75.97;95364.47;5042837;28;20386;-69
2020/12/27 06:08:27;;;;;;;3.83;2.08;;;-3273.30;75.80;;;-5.82;76.50;95363.31;5066592;28;20090;-69
2020/12/27 06:11:05;;;;;;;4.88;2.30;;;-3273.40;75.80;;;-5.80;76.81;95369.13;5066234;28;20033;-69
2020/12/27 06:14:12;;;;;;;5.45;2.33;;;-3273.40;75.50;;;-5.77;77.02;95365.53;5066938;28;20036;-69
2020/12/27 06:16:50;;;;;;;4.65;2.10;;;-3273.50;75.40;;;-5.78;76.67;95359.59;5050243;28;20039;-70
2020/12/27 06:19:24;;;;;;;5.57;2.42;;;-3273.50;75.30;;;-5.79;76.51;95355.41;5045079;28;20427;-70
2020/12/27 06:22:09;;;;;;;4.75;2.13;;;-3273.50;74.90;;;-5.79;76.54;95350.28;5042259;28;20067;-70
2020/12/27 06:24:37;;;;;;;5.43;2.22;;;-3273.50;74.90;;;-5.80;75.29;95355.53;5012854;28;20190;-69
2020/12/27 06:27:04;;;;;;;3.72;2.20;;;-3273.50;74.80;;;-5.77;75.54;95358.69;4996120;28;20040;-71
2020/12/27 06:29:34;;;;;;;3.47;1.90;;;-3273.50;74.40;;;-5.78;75.87;95344.25;5031099;28;20182;-70
2020/12/27 06:32:04;;;;;;;4.47;2.13;;;-3273.50;74.40;;;-5.77;75.21;95338.19;5028789;28;20053;-69
2020/12/27 06:34:30;;;;;;;3.70;2.13;;;-3273.60;74.20;;;-5.76;75.06;95332.13;5026336;28;20110;-70
2020/12/27 06:36:57;;;;;;;4.85;2.15;;;-3273.60;74.00;;;-5.75;75.24;95320.97;5030987;28;20074;-70
2020/12/27 06:39:27;;;;;;;4.57;2.20;;;-3273.60;74.10;;;-5.74;75.41;95314.91;5012801;28;20472;-69
2020/12/27 06:42:16;;;;;;;7.05;2.70;;;-3273.60;74.00;;;-5.72;76.59;95305.38;5016910;28;20032;-70
2020/12/27 06:44:48;;;;;;;4.28;2.20;;;-3273.60;74.00;;;-5.71;75.56;95301.88;5031831;28;20044;-70
2020/12/27 06:47:14;;;;;;;5.55;2.47;;;-3273.70;74.20;;;-5.72;75.41;95305.38;5044266;28;20081;-69
2020/12/27 06:49:40;;;;;;;3.53;2.28;;;-3273.60;73.70;;;-5.72;75.24;95294.31;5028595;28;20037;-70
2020/12/27 06:52:20;;;;;;;3.40;2.03;;;-3273.60;73.70;;;-5.73;76.11;95293.50;5011947;28;20044;-70
2020/12/27 06:54:50;;;;;;;4.85;2.53;;;-3273.70;73.40;;;-5.72;75.54;95292.56;5035188;28;20028;-69
2020/12/27 06:57:45;;;;;;;3.20;1.85;;;-3273.60;73.60;;;-5.71;76.51;95278.03;5032487;28;20036;-69
2020/12/27 07:00:30;;;;;;;3.80;2.10;;;-3273.60;73.70;;;-5.71;76.46;95266.03;5029888;28;20025;-69
2020/12/27 07:03:08;;;;;;;4.25;2.33;;;-3273.70;73.70;;;-5.70;76.07;95272.78;5028436;28;20177;-69
2020/12/27 07:05:36;;;;;;;3.90;2.28;;;-3273.70;73.80;;;-5.69;75.39;95269.28;5004394;28;20098;-69
2020/12/27 07:08:07;;;;;;;3.92;2.10;;;-3273.70;73.60;;;-5.66;75.64;95268.25;5046433;28;20054;-68
2020/12/27 07:10:34;;;;;;;5.25;2.55;;;-3273.70;73.70;;;-5.66;75.24;95269.09;5021434;28;20121;-70
2020/12/27 07:13:14;;;;;;;4.93;2.35;;;-3273.70;73.50;;;-5.71;75.93;95266.03;5039185;28;20100;-69
2020/12/27 07:15:52;;;;;;;4.70;2.60;;;-3273.70;73.40;;;-5.71;76.02;95276.28;5024019;28;20074;-70
2020/12/27 07:18:27;;;;;;;5.47;2.35;;;-3273.70;73.50;;;-5.70;75.85;95270.22;5037960;28;20045;-70
2020/12/27 07:20:57;;;;;;;6.40;2.83;;;-3273.60;73.60;;;-5.71;75.65;95260.91;5034097;28;20131;-70
2020/12/27 07:23:25;;;;;;;7.38;3.38;;;-3273.70;73.60;;;-5.72;75.47;95248.22;5031219;28;20111;-70
2020/12/27 07:26:02;;;;;;;8.10;3.55;;;-3273.70;73.80;;;-5.70;76.13;95247.19;5035108;28;20036;-69
2020/12/27 07:28:28;;;;;;;17.33;7.72;;;-3273.80;74.00;;;-5.68;75.66;95245.31;5016647;28;20029;-69
2020/12/27 07:31:01;;;;;;;61.30;30.02;;;-3273.90;74.20;;;-5.62;76.82;95239.78;5047716;28;20039;-70
2020/12/27 07:33:32;;;;;;;117.28;52.00;;;-3274.00;74.60;;;-5.58;76.62;95223.25;5027681;28;20978;-70
2020/12/27 07:36:07;;;;;;;;;;;-3274.00;74.20;;;-5.53;78.28;95216.97;5030884;28;20112;-69
2020/12/27 07:38:59;;;;;;;22.50;11.38;;;-3274.10;74.10;;;-5.47;77.53;95206.25;5025840;28;19912;-69
2020/12/27 07:41:29;;;;;;;5.57;3.50;;;-3274.10;74.20;;;-5.41;76.02;95198.13;5057803;28;20043;-70
2020/12/27 07:43:56;;;;;;;5.82;3.45;;;-3274.20;73.80;;;-5.36;76.04;95193.47;5003685;28;20032;-69
2020/12/27 07:46:22;;;;;;;6.47;3.60;;;-3274.20;73.60;;;-5.31;75.95;95191.38;5030366;28;20059;-69
2020/12/27 07:48:47;;;;;;;13.73;6.85;;;-3274.30;73.90;;;-5.22;75.97;95177.84;5029152;28;20079;-70
2020/12/27 07:51:24;;;;;;;16.08;7.68;;;-3274.40;73.70;;;-5.11;76.88;95177.06;5030646;28;20037;-71
2020/12/27 07:53:56;;;;;;;25.33;11.55;;;-3274.50;73.30;;;-5.04;76.34;95176.47;5031842;28;20033;-70
2020/12/27 07:56:23;;;;;;;8.73;4.18;;;-3274.60;72.80;;;-4.93;75.91;95173.09;5048453;28;20033;-70
2020/12/27 07:58:53;;;;;;;5.18;2.00;;;-3274.70;72.80;;;-4.84;75.89;95171.56;5043457;28;20140;-71
2020/12/27 08:01:24;;;;;;;3.45;1.85;;;-3274.90;72.20;;;-4.72;76.13;95168.06;5025110;28;20037;-71
2020/12/27 08:03:57;;;;;;;3.75;1.98;;;-3275.00;71.90;;;-4.60;76.42;95167.09;5013359;28;20033;-72
2020/12/27 08:06:24;;;;;;;3.75;2.00;;;-3275.20;71.70;;;-4.52;75.44;95148.56;5034914;28;20031;-71
2020/12/27 08:08:59;;;;;;;3.88;2.00;;;-3275.10;70.50;;;-4.42;75.51;95132.28;5031163;28;20045;-68
2020/12/27 08:11:24;;;;;;;36.65;15.60;;;-3275.30;71.20;;;-4.30;75.55;95125.34;5017952;28;20089;-69
2020/12/27 08:14:04;;;;;;;47.70;24.77;;;-3275.40;70.50;;;-4.16;75.58;95119.94;5030331;28;20033;-71
2020/12/27 08:16:30;;;;;;;78.55;35.63;;;-3275.70;70.10;;;-4.01;75.40;95102.50;5022150;28;20025;-67
2020/12/27 08:19:15;;;;;;;26.83;14.43;;;-3275.80;70.70;;;-3.88;74.26;95094.59;5051277;28;20058;-71
2020/12/27 08:21:42;;;;;;;20.42;10.48;;;-3275.90;69.30;;;-3.80;75.13;95087.09;5031236;28;20051;-70
2020/12/27 08:24:17;;;;;;;11.45;6.10;;;-3276.00;69.00;;;-3.66;74.61;95085.94;5035612;28;20387;-69
2020/12/27 08:26:44;;;;;;;5.15;2.78;;;-3276.10;68.60;;;-3.58;74.81;95079.22;5034771;28;20028;-68
2020/12/27 08:29:16;;;;;;;5.68;2.75;;;-3276.20;68.20;;;-3.49;74.34;95077.63;5017807;28;20055;-69
2020/12/27 08:31:44;;;;;;;6.47;2.90;;;-3276.30;67.20;;;-3.45;74.82;95073.84;5043997;28;20099;-67
2020/12/27 08:34:14;;;;;;;5.00;2.42;;;-3276.40;66.90;;;-3.36;73.84;95065.38;5006009;28;20091;-67
2020/12/27 08:36:44;;;;;;;3.95;2.58;;;-3276.50;66.70;;;-3.27;74.43;95062.03;5047716;28;20037;-69
2020/12/27 08:39:35;;;;;;;6.10;2.47;;;-3276.60;66.50;;;-3.20;73.01;95042.53;5043017;28;20028;-70
2020/12/27 08:42:19;;;;;;;3.80;2.10;;;-3276.60;65.50;;;-3.11;73.13;95034.06;5031359;28;20033;-68
2020/12/27 08:45:02;;;;;;;3.42;1.80;;;-3276.70;66.00;;;-2.99;72.68;95039.09;5038512;28;20095;-67
2020/12/27 08:47:46;;;;;;;7.97;1.67;;;0.00;65.20;;;-2.89;72.53;95042.50;5021399;28;20032;-67
2020/12/27 08:50:17;;;;;;;5.03;2.03;;;0.00;65.20;;;-2.80;73.17;95033.97;5069286;28;20048;-68
2020/12/27 08:52:50;;;;;;;;;;;0.20;64.90;;;-2.71;72.08;95038.34;5030290;28;20066;-66
2020/12/27 08:55:16;;;;;;;4.22;1.90;;;0.30;64.60;;;-2.64;73.72;95034.28;5031292;28;19908;-70
2020/12/27 08:57:44;;;;;;;3.40;1.80;;;0.40;64.20;;;-2.68;72.64;95027.78;5002132;28;20055;-69
2020/12/27 09:00:11;;;;;;;4.05;2.28;;;0.20;64.00;;;-2.63;73.22;95023.03;5021441;28;20028;-67
2020/12/27 09:02:37;;;;;;;3.47;2.15;;;0.40;63.80;;;-2.57;73.23;95017.34;5034685;28;20383;-69
2020/12/27 09:05:18;;;;;;;9.88;5.10;;;0.30;63.80;;;-2.55;72.02;95018.00;5063096;28;20028;-70
2020/12/27 09:07:45;;;;;;;;;;;0.40;64.30;;;-2.47;72.94;95005.28;5035712;28;20515;-69
2020/12/27 09:10:20;;;;;;;7.82;3.65;;;0.60;65.20;;;-2.39;72.72;94996.88;5023612;28;19916;-67
2020/12/27 09:13:09;;;;;;;12.35;5.80;;;0.60;64.40;;;-2.25;71.61;94998.22;5025976;28;20024;-70
2020/12/27 09:15:48;;;;;;;5.15;2.55;;;0.70;63.40;;;-2.16;71.64;94982.75;5038026;28;20028;-69
2020/12/27 09:18:26;;;;;;;4.45;2.40;;;0.90;62.80;;;-2.08;71.59;94979.47;5033804;28;20720;-68
2020/12/27 09:20:57;;;;;;;4.32;2.13;;;1.10;62.10;;;-2.03;71.56;94972.16;5031911;28;20090;-68
2020/12/27 09:23:23;;;;;;;7.70;4.07;;;1.10;61.90;;;-1.98;72.04;94975.09;4990420;28;20069;-69
2020/12/27 09:26:02;;;;;;;6.30;4.30;;;1.10;60.70;;;-1.88;70.26;94969.91;5037998;28;20060;-70
2020/12/27 09:28:30;;;;;;;3.97;2.08;;;1.20;60.40;;;-1.82;71.45;94956.47;5035727;28;20071;-67
2020/12/27 09:31:09;;;;;;;3.00;2.08;;;1.30;59.80;;;-1.68;70.27;94955.19;5035355;28;20070;-69
2020/12/27 09:33:38;;;;;;;4.03;2.10;;;1.50;59.50;;;-1.61;71.54;94945.94;5051859;28;20028;-69
2020/12/27 09:36:05;;;;;;;14.20;6.50;;;1.60;59.80;;;-1.52;71.40;94939.13;5046878;28;20033;-68
2020/12/27 09:38:45;;;;;;;7.15;3.00;;;1.70;60.00;;;-1.36;69.37;94928.97;5017536;28;20063;-68
2020/12/27 09:41:18;;;;;;;3.35;1.90;;;1.90;58.20;;;-1.29;70.00;94925.69;5015187;28;20082;-67
2020/12/27 09:44:03;;;;;;;5.07;1.90;;;1.90;57.60;;;-1.19;68.77;94919.63;5011538;28;20025;-68
2020/12/27 09:47:00;;;;;;;4.03;2.20;;;2.20;58.10;;;-1.09;67.68;94922.97;5035260;28;20029;-68
2020/12/27 09:49:31;;;;;;;13.40;6.95;;;2.10;56.80;;;-1.03;69.93;94907.72;5032094;28;20029;-69
2020/12/27 09:52:11;;;;;;;8.98;4.57;;;2.30;56.70;;;-0.86;67.92;94911.25;5015676;28;20049;-68
2020/12/27 09:54:38;;;;;;;5.50;3.03;;;2.60;56.60;;;-0.75;70.36;94902.47;5015045;28;20074;-70
2020/12/27 09:57:14;;;;;;;3.67;1.98;;;2.70;55.60;;;-0.65;67.58;94893.69;5036477;28;20037;-67
2020/12/27 09:59:41;;;;;;;4.88;2.20;;;2.80;54.80;;;-0.53;69.79;94880.50;5034265;28;20025;-67
2020/12/27 10:02:06;;;;;;;6.22;3.70;;;2.90;53.60;;;-0.43;69.64;94876.09;5049201;28;20116;-66
2020/12/27 10:04:32;;;;;;;6.65;3.10;;;3.10;53.20;;;-0.32;69.49;94862.91;5045979;28;20103;-67
2020/12/27 10:06:58;;;;;;;17.38;8.60;;;3.30;52.70;;;-0.17;69.63;94861.38;5030193;28;20444;-68
2020/12/27 10:09:23;;;;;;;5.47;2.97;;;3.50;52.70;;;-0.05;69.22;94849.78;4999106;28;20036;-67
2020/12/27 10:11:49;;;;;;;5.15;2.00;;;3.60;51.70;;;0.06;69.13;94840.16;5030847;28;20071;-66